sensor_id;sensor_type;location;lat;lon;timestamp;P1;durP1;ratioP1;P2;durP2;ratioP2
64110;SDS011;50401;48.188;11.566;2023-02-05T00:02:00;14.70;;;8.07;;
64110;SDS011;50401;48.188;11.566;2023-02-05T00:04:25;15.43;;;8.52;;
64110;SDS011;50401;48.188;11.566;2023-02-05T00:06:51;16.30;;;8.43;;
64110;SDS011;50401;48.188;11.566;2023-02-05T00:09:16;15.45;;;8.40;;
64110;SDS011;50401;48.188;11.566;2023-02-05T00:11:42;20.38;;;8.35;;
64110;SDS011;50401;48.188;11.566;2023-02-05T00:14:07;15.18;;;8.25;;
64110;SDS011;50401;48.188;11.566;2023-02-05T00:16:33;16.67;;;8.32;;
64110;SDS011;50401;48.188;11.566;2023-02-05T00:18:59;16.70;;;9.45;;
64110;SDS011;50401;48.188;11.566;2023-02-05T00:21:24;15.80;;;8.60;;
64110;SDS011;50401;48.188;11.566;2023-02-05T00:23:50;14.57;;;8.98;;
64110;SDS011;50401;48.188;11.566;2023-02-05T00:26:17;22.67;;;8.77;;
64110;SDS011;50401;48.188;11.566;2023-02-05T00:28:43;17.10;;;9.20;;
64110;SDS011;50401;48.188;11.566;2023-02-05T00:31:11;28.55;;;8.88;;
64110;SDS011;50401;48.188;11.566;2023-02-05T00:33:38;16.83;;;8.27;;
64110;SDS011;50401;48.188;11.566;2023-02-05T00:36:04;14.88;;;8.45;;
64110;SDS011;50401;48.188;11.566;2023-02-05T00:38:30;14.40;;;8.38;;
64110;SDS011;50401;48.188;11.566;2023-02-05T00:40:55;16.45;;;8.38;;
64110;SDS011;50401;48.188;11.566;2023-02-05T00:43:23;16.58;;;9.20;;
64110;SDS011;50401;48.188;11.566;2023-02-05T00:45:49;15.93;;;7.90;;
64110;SDS011;50401;48.188;11.566;2023-02-05T00:48:14;13.77;;;8.13;;
64110;SDS011;50401;48.188;11.566;2023-02-05T00:50:40;18.63;;;8.48;;
64110;SDS011;50401;48.188;11.566;2023-02-05T00:53:05;15.18;;;8.20;;
64110;SDS011;50401;48.188;11.566;2023-02-05T00:55:31;24.27;;;8.48;;
64110;SDS011;50401;48.188;11.566;2023-02-05T00:57:56;17.23;;;8.95;;
64110;SDS011;50401;48.188;11.566;2023-02-05T01:00:22;17.77;;;8.40;;
64110;SDS011;50401;48.188;11.566;2023-02-05T01:02:47;17.75;;;8.15;;
64110;SDS011;50401;48.188;11.566;2023-02-05T01:05:13;19.02;;;8.50;;
64110;SDS011;50401;48.188;11.566;2023-02-05T01:07:39;16.63;;;8.88;;
64110;SDS011;50401;48.188;11.566;2023-02-05T01:10:05;18.77;;;9.25;;
64110;SDS011;50401;48.188;11.566;2023-02-05T01:12:31;21.30;;;9.05;;
64110;SDS011;50401;48.188;11.566;2023-02-05T01:14:59;23.10;;;10.07;;
64110;SDS011;50401;48.188;11.566;2023-02-05T01:17:25;18.75;;;9.77;;
64110;SDS011;50401;48.188;11.566;2023-02-05T01:19:51;17.30;;;9.77;;
64110;SDS011;50401;48.188;11.566;2023-02-05T01:22:19;16.38;;;8.88;;
64110;SDS011;50401;48.188;11.566;2023-02-05T01:24:45;19.90;;;10.35;;
64110;SDS011;50401;48.188;11.566;2023-02-05T01:27:10;23.20;;;10.48;;
64110;SDS011;50401;48.188;11.566;2023-02-05T01:29:38;18.30;;;9.38;;
64110;SDS011;50401;48.188;11.566;2023-02-05T01:32:06;21.92;;;8.48;;
64110;SDS011;50401;48.188;11.566;2023-02-05T01:34:31;16.10;;;7.53;;
64110;SDS011;50401;48.188;11.566;2023-02-05T01:36:57;19.60;;;9.00;;
64110;SDS011;50401;48.188;11.566;2023-02-05T01:39:22;16.45;;;8.07;;
64110;SDS011;50401;48.188;11.566;2023-02-05T01:41:48;13.05;;;7.95;;
64110;SDS011;50401;48.188;11.566;2023-02-05T01:44:15;16.88;;;7.75;;
64110;SDS011;50401;48.188;11.566;2023-02-05T01:46:48;16.05;;;8.90;;
64110;SDS011;50401;48.188;11.566;2023-02-05T01:51:47;16.83;;;9.10;;
64110;SDS011;50401;48.188;11.566;2023-02-05T01:54:14;19.77;;;9.40;;
64110;SDS011;50401;48.188;11.566;2023-02-05T01:56:44;18.70;;;9.38;;
64110;SDS011;50401;48.188;11.566;2023-02-05T01:59:17;14.23;;;8.65;;
64110;SDS011;50401;48.188;11.566;2023-02-05T02:01:45;16.30;;;8.98;;
64110;SDS011;50401;48.188;11.566;2023-02-05T02:04:11;16.75;;;9.18;;
64110;SDS011;50401;48.188;11.566;2023-02-05T02:06:41;20.50;;;8.93;;
64110;SDS011;50401;48.188;11.566;2023-02-05T02:09:06;13.90;;;8.35;;
64110;SDS011;50401;48.188;11.566;2023-02-05T02:11:34;18.73;;;8.73;;
64110;SDS011;50401;48.188;11.566;2023-02-05T02:14:04;16.33;;;8.23;;
64110;SDS011;50401;48.188;11.566;2023-02-05T02:16:32;26.17;;;8.88;;
64110;SDS011;50401;48.188;11.566;2023-02-05T02:18:59;15.95;;;7.88;;
64110;SDS011;50401;48.188;11.566;2023-02-05T02:21:36;14.30;;;6.93;;
64110;SDS011;50401;48.188;11.566;2023-02-05T02:24:52;14.55;;;7.82;;
64110;SDS011;50401;48.188;11.566;2023-02-05T02:29:54;12.95;;;7.18;;
64110;SDS011;50401;48.188;11.566;2023-02-05T02:40:31;17.33;;;7.60;;
64110;SDS011;50401;48.188;11.566;2023-02-05T02:43:04;15.45;;;8.02;;
64110;SDS011;50401;48.188;11.566;2023-02-05T02:45:32;14.23;;;6.10;;
64110;SDS011;50401;48.188;11.566;2023-02-05T02:47:58;10.63;;;6.50;;
64110;SDS011;50401;48.188;11.566;2023-02-05T02:50:29;13.80;;;7.15;;
64110;SDS011;50401;48.188;11.566;2023-02-05T02:53:08;9.05;;;5.78;;
64110;SDS011;50401;48.188;11.566;2023-02-05T02:55:37;9.27;;;5.82;;
64110;SDS011;50401;48.188;11.566;2023-02-05T02:58:07;9.70;;;6.43;;
64110;SDS011;50401;48.188;11.566;2023-02-05T03:00:39;11.98;;;6.45;;
64110;SDS011;50401;48.188;11.566;2023-02-05T03:03:07;12.40;;;6.78;;
64110;SDS011;50401;48.188;11.566;2023-02-05T03:05:35;12.05;;;6.60;;
64110;SDS011;50401;48.188;11.566;2023-02-05T03:08:06;11.77;;;6.22;;
64110;SDS011;50401;48.188;11.566;2023-02-05T03:11:05;11.43;;;6.13;;
64110;SDS011;50401;48.188;11.566;2023-02-05T03:13:35;9.55;;;5.72;;
64110;SDS011;50401;48.188;11.566;2023-02-05T03:16:00;11.15;;;6.05;;
64110;SDS011;50401;48.188;11.566;2023-02-05T03:18:26;11.60;;;6.25;;
64110;SDS011;50401;48.188;11.566;2023-02-05T03:20:57;10.70;;;6.15;;
64110;SDS011;50401;48.188;11.566;2023-02-05T03:23:27;12.32;;;6.72;;
64110;SDS011;50401;48.188;11.566;2023-02-05T03:25:53;10.73;;;6.00;;
64110;SDS011;50401;48.188;11.566;2023-02-05T03:28:18;10.43;;;6.30;;
64110;SDS011;50401;48.188;11.566;2023-02-05T03:33:46;12.57;;;6.60;;
64110;SDS011;50401;48.188;11.566;2023-02-05T03:39:08;11.63;;;6.60;;
64110;SDS011;50401;48.188;11.566;2023-02-05T03:47:17;12.45;;;6.88;;
64110;SDS011;50401;48.188;11.566;2023-02-05T03:52:32;12.70;;;7.30;;
64110;SDS011;50401;48.188;11.566;2023-02-05T03:55:04;12.45;;;6.70;;
64110;SDS011;50401;48.188;11.566;2023-02-05T03:57:34;11.48;;;6.65;;
64110;SDS011;50401;48.188;11.566;2023-02-05T04:00:14;15.20;;;6.57;;
64110;SDS011;50401;48.188;11.566;2023-02-05T04:02:40;13.07;;;6.55;;
64110;SDS011;50401;48.188;11.566;2023-02-05T04:05:06;15.25;;;7.18;;
64110;SDS011;50401;48.188;11.566;2023-02-05T04:07:32;13.50;;;7.53;;
64110;SDS011;50401;48.188;11.566;2023-02-05T04:09:57;12.90;;;7.18;;
64110;SDS011;50401;48.188;11.566;2023-02-05T04:12:23;14.10;;;7.00;;
64110;SDS011;50401;48.188;11.566;2023-02-05T04:14:48;13.50;;;7.15;;
64110;SDS011;50401;48.188;11.566;2023-02-05T04:17:13;11.80;;;7.10;;
64110;SDS011;50401;48.188;11.566;2023-02-05T04:19:38;13.90;;;6.93;;
64110;SDS011;50401;48.188;11.566;2023-02-05T04:22:05;15.10;;;7.40;;
64110;SDS011;50401;48.188;11.566;2023-02-05T04:24:31;12.13;;;7.38;;
64110;SDS011;50401;48.188;11.566;2023-02-05T04:26:56;11.90;;;6.57;;
64110;SDS011;50401;48.188;11.566;2023-02-05T04:29:21;12.73;;;6.28;;
64110;SDS011;50401;48.188;11.566;2023-02-05T04:31:47;13.02;;;7.60;;
64110;SDS011;50401;48.188;11.566;2023-02-05T04:34:12;12.57;;;7.25;;
64110;SDS011;50401;48.188;11.566;2023-02-05T04:36:38;14.50;;;7.80;;
64110;SDS011;50401;48.188;11.566;2023-02-05T04:39:03;15.32;;;8.40;;
64110;SDS011;50401;48.188;11.566;2023-02-05T04:41:28;16.10;;;8.90;;
64110;SDS011;50401;48.188;11.566;2023-02-05T04:43:54;15.30;;;8.73;;
64110;SDS011;50401;48.188;11.566;2023-02-05T04:46:19;15.60;;;8.48;;
64110;SDS011;50401;48.188;11.566;2023-02-05T04:48:45;14.15;;;7.45;;
64110;SDS011;50401;48.188;11.566;2023-02-05T04:51:11;13.93;;;8.75;;
64110;SDS011;50401;48.188;11.566;2023-02-05T04:53:37;15.05;;;7.63;;
64110;SDS011;50401;48.188;11.566;2023-02-05T04:56:04;12.35;;;7.68;;
64110;SDS011;50401;48.188;11.566;2023-02-05T04:58:30;15.25;;;7.60;;
64110;SDS011;50401;48.188;11.566;2023-02-05T05:00:55;14.20;;;8.15;;
64110;SDS011;50401;48.188;11.566;2023-02-05T05:03:21;14.30;;;8.25;;
64110;SDS011;50401;48.188;11.566;2023-02-05T05:05:46;14.48;;;7.68;;
64110;SDS011;50401;48.188;11.566;2023-02-05T05:08:12;13.10;;;8.10;;
64110;SDS011;50401;48.188;11.566;2023-02-05T05:10:37;15.52;;;8.18;;
64110;SDS011;50401;48.188;11.566;2023-02-05T05:13:02;15.77;;;7.47;;
64110;SDS011;50401;48.188;11.566;2023-02-05T05:15:28;16.42;;;7.47;;
64110;SDS011;50401;48.188;11.566;2023-02-05T05:17:53;15.55;;;8.43;;
64110;SDS011;50401;48.188;11.566;2023-02-05T05:20:19;12.82;;;7.40;;
64110;SDS011;50401;48.188;11.566;2023-02-05T05:22:44;16.23;;;8.45;;
64110;SDS011;50401;48.188;11.566;2023-02-05T05:25:09;17.40;;;8.23;;
64110;SDS011;50401;48.188;11.566;2023-02-05T05:27:35;16.38;;;9.02;;
64110;SDS011;50401;48.188;11.566;2023-02-05T05:30:00;20.80;;;8.68;;
64110;SDS011;50401;48.188;11.566;2023-02-05T05:32:25;16.38;;;8.77;;
64110;SDS011;50401;48.188;11.566;2023-02-05T05:34:51;16.02;;;8.77;;
64110;SDS011;50401;48.188;11.566;2023-02-05T05:37:16;14.23;;;8.02;;
64110;SDS011;50401;48.188;11.566;2023-02-05T05:39:41;20.08;;;9.90;;
64110;SDS011;50401;48.188;11.566;2023-02-05T05:42:25;21.45;;;9.07;;
64110;SDS011;50401;48.188;11.566;2023-02-05T05:45:09;15.52;;;8.73;;
64110;SDS011;50401;48.188;11.566;2023-02-05T05:47:35;18.70;;;9.30;;
64110;SDS011;50401;48.188;11.566;2023-02-05T05:50:00;16.42;;;8.57;;
64110;SDS011;50401;48.188;11.566;2023-02-05T05:52:25;17.73;;;8.52;;
64110;SDS011;50401;48.188;11.566;2023-02-05T05:54:51;14.40;;;8.85;;
64110;SDS011;50401;48.188;11.566;2023-02-05T05:57:16;15.27;;;8.02;;
64110;SDS011;50401;48.188;11.566;2023-02-05T05:59:41;16.25;;;8.45;;
64110;SDS011;50401;48.188;11.566;2023-02-05T06:02:07;15.30;;;8.48;;
64110;SDS011;50401;48.188;11.566;2023-02-05T06:04:32;18.10;;;9.00;;
64110;SDS011;50401;48.188;11.566;2023-02-05T06:06:57;15.48;;;8.63;;
64110;SDS011;50401;48.188;11.566;2023-02-05T06:09:23;19.75;;;8.40;;
64110;SDS011;50401;48.188;11.566;2023-02-05T06:11:49;16.00;;;8.20;;
64110;SDS011;50401;48.188;11.566;2023-02-05T06:14:15;16.45;;;8.38;;
64110;SDS011;50401;48.188;11.566;2023-02-05T06:16:41;13.45;;;8.23;;
64110;SDS011;50401;48.188;11.566;2023-02-05T06:19:06;17.02;;;8.27;;
64110;SDS011;50401;48.188;11.566;2023-02-05T06:21:32;19.60;;;8.70;;
64110;SDS011;50401;48.188;11.566;2023-02-05T06:23:57;16.42;;;8.63;;
64110;SDS011;50401;48.188;11.566;2023-02-05T06:26:22;15.00;;;6.97;;
64110;SDS011;50401;48.188;11.566;2023-02-05T06:28:48;14.00;;;7.50;;
64110;SDS011;50401;48.188;11.566;2023-02-05T06:31:13;17.67;;;7.93;;
64110;SDS011;50401;48.188;11.566;2023-02-05T06:33:38;16.08;;;8.40;;
64110;SDS011;50401;48.188;11.566;2023-02-05T06:36:04;14.60;;;8.23;;
64110;SDS011;50401;48.188;11.566;2023-02-05T06:38:30;15.75;;;8.80;;
64110;SDS011;50401;48.188;11.566;2023-02-05T06:40:55;14.05;;;7.70;;
64110;SDS011;50401;48.188;11.566;2023-02-05T06:43:21;16.05;;;7.68;;
64110;SDS011;50401;48.188;11.566;2023-02-05T06:45:46;16.95;;;7.80;;
64110;SDS011;50401;48.188;11.566;2023-02-05T06:48:12;12.52;;;7.18;;
64110;SDS011;50401;48.188;11.566;2023-02-05T06:50:37;15.75;;;8.35;;
64110;SDS011;50401;48.188;11.566;2023-02-05T06:53:03;19.60;;;9.73;;
64110;SDS011;50401;48.188;11.566;2023-02-05T06:55:28;17.08;;;7.97;;
64110;SDS011;50401;48.188;11.566;2023-02-05T06:57:54;15.27;;;8.13;;
64110;SDS011;50401;48.188;11.566;2023-02-05T07:00:19;17.77;;;9.40;;
64110;SDS011;50401;48.188;11.566;2023-02-05T07:02:44;16.25;;;8.40;;
64110;SDS011;50401;48.188;11.566;2023-02-05T07:05:10;18.70;;;9.02;;
64110;SDS011;50401;48.188;11.566;2023-02-05T07:07:35;16.20;;;8.50;;
64110;SDS011;50401;48.188;11.566;2023-02-05T07:10:01;20.08;;;8.90;;
64110;SDS011;50401;48.188;11.566;2023-02-05T07:12:27;15.25;;;8.45;;
64110;SDS011;50401;48.188;11.566;2023-02-05T07:14:52;22.70;;;9.27;;
64110;SDS011;50401;48.188;11.566;2023-02-05T07:17:17;15.25;;;8.80;;
64110;SDS011;50401;48.188;11.566;2023-02-05T07:19:44;19.70;;;9.57;;
64110;SDS011;50401;48.188;11.566;2023-02-05T07:22:12;18.67;;;9.15;;
64110;SDS011;50401;48.188;11.566;2023-02-05T07:24:38;21.63;;;9.82;;
64110;SDS011;50401;48.188;11.566;2023-02-05T07:27:03;16.02;;;9.98;;
64110;SDS011;50401;48.188;11.566;2023-02-05T07:29:28;16.50;;;9.52;;
64110;SDS011;50401;48.188;11.566;2023-02-05T07:31:54;19.30;;;10.00;;
64110;SDS011;50401;48.188;11.566;2023-02-05T07:34:19;13.45;;;8.85;;
64110;SDS011;50401;48.188;11.566;2023-02-05T07:36:44;16.48;;;9.45;;
64110;SDS011;50401;48.188;11.566;2023-02-05T07:39:13;15.50;;;9.52;;
64110;SDS011;50401;48.188;11.566;2023-02-05T07:41:39;13.18;;;8.75;;
64110;SDS011;50401;48.188;11.566;2023-02-05T07:44:05;15.50;;;8.98;;
64110;SDS011;50401;48.188;11.566;2023-02-05T07:46:30;12.88;;;9.10;;
64110;SDS011;50401;48.188;11.566;2023-02-05T07:48:56;14.20;;;9.13;;
64110;SDS011;50401;48.188;11.566;2023-02-05T07:51:22;16.63;;;10.02;;
64110;SDS011;50401;48.188;11.566;2023-02-05T07:53:48;21.88;;;10.38;;
64110;SDS011;50401;48.188;11.566;2023-02-05T07:56:14;12.43;;;9.40;;
64110;SDS011;50401;48.188;11.566;2023-02-05T07:58:40;14.35;;;9.55;;
64110;SDS011;50401;48.188;11.566;2023-02-05T08:01:05;16.77;;;9.93;;
64110;SDS011;50401;48.188;11.566;2023-02-05T08:03:31;13.35;;;10.23;;
64110;SDS011;50401;48.188;11.566;2023-02-05T08:05:56;23.65;;;10.98;;
64110;SDS011;50401;48.188;11.566;2023-02-05T08:08:22;14.98;;;10.73;;
64110;SDS011;50401;48.188;11.566;2023-02-05T08:10:55;21.83;;;10.88;;
64110;SDS011;50401;48.188;11.566;2023-02-05T08:13:22;14.65;;;10.43;;
64110;SDS011;50401;48.188;11.566;2023-02-05T08:15:47;14.18;;;9.68;;
64110;SDS011;50401;48.188;11.566;2023-02-05T08:18:13;13.77;;;9.43;;
64110;SDS011;50401;48.188;11.566;2023-02-05T08:20:38;16.92;;;9.70;;
64110;SDS011;50401;48.188;11.566;2023-02-05T08:23:03;18.83;;;9.18;;
64110;SDS011;50401;48.188;11.566;2023-02-05T08:25:29;12.35;;;9.43;;
64110;SDS011;50401;48.188;11.566;2023-02-05T08:27:54;12.02;;;9.10;;
64110;SDS011;50401;48.188;11.566;2023-02-05T08:30:20;16.92;;;9.38;;
64110;SDS011;50401;48.188;11.566;2023-02-05T08:32:46;16.80;;;10.10;;
64110;SDS011;50401;48.188;11.566;2023-02-05T08:35:13;15.68;;;9.30;;
64110;SDS011;50401;48.188;11.566;2023-02-05T08:37:39;13.55;;;8.98;;
64110;SDS011;50401;48.188;11.566;2023-02-05T08:40:04;12.23;;;7.68;;
64110;SDS011;50401;48.188;11.566;2023-02-05T08:42:30;14.95;;;7.35;;
64110;SDS011;50401;48.188;11.566;2023-02-05T08:44:55;9.00;;;6.50;;
64110;SDS011;50401;48.188;11.566;2023-02-05T08:47:22;14.23;;;7.28;;
64110;SDS011;50401;48.188;11.566;2023-02-05T08:49:48;13.68;;;6.78;;
64110;SDS011;50401;48.188;11.566;2023-02-05T08:52:13;11.60;;;5.78;;
64110;SDS011;50401;48.188;11.566;2023-02-05T08:54:39;10.18;;;5.85;;
64110;SDS011;50401;48.188;11.566;2023-02-05T08:57:05;10.95;;;5.50;;
64110;SDS011;50401;48.188;11.566;2023-02-05T08:59:31;10.10;;;5.70;;
64110;SDS011;50401;48.188;11.566;2023-02-05T09:01:57;14.40;;;6.03;;
64110;SDS011;50401;48.188;11.566;2023-02-05T09:04:22;13.07;;;6.38;;
64110;SDS011;50401;48.188;11.566;2023-02-05T09:06:48;12.18;;;5.57;;
64110;SDS011;50401;48.188;11.566;2023-02-05T09:09:14;10.05;;;5.07;;
64110;SDS011;50401;48.188;11.566;2023-02-05T09:11:39;9.57;;;5.57;;
64110;SDS011;50401;48.188;11.566;2023-02-05T09:14:05;10.48;;;4.88;;
64110;SDS011;50401;48.188;11.566;2023-02-05T09:16:31;10.23;;;4.97;;
64110;SDS011;50401;48.188;11.566;2023-02-05T09:18:57;5.53;;;4.40;;
64110;SDS011;50401;48.188;11.566;2023-02-05T09:21:23;6.35;;;4.65;;
64110;SDS011;50401;48.188;11.566;2023-02-05T09:23:49;9.90;;;4.50;;
64110;SDS011;50401;48.188;11.566;2023-02-05T09:26:15;7.55;;;4.40;;
64110;SDS011;50401;48.188;11.566;2023-02-05T09:28:41;9.50;;;4.22;;
64110;SDS011;50401;48.188;11.566;2023-02-05T09:31:07;5.47;;;4.25;;
64110;SDS011;50401;48.188;11.566;2023-02-05T09:33:36;9.60;;;4.82;;
64110;SDS011;50401;48.188;11.566;2023-02-05T09:36:08;17.05;;;5.15;;
64110;SDS011;50401;48.188;11.566;2023-02-05T09:38:36;5.70;;;4.28;;
64110;SDS011;50401;48.188;11.566;2023-02-05T09:41:09;6.57;;;4.80;;
64110;SDS011;50401;48.188;11.566;2023-02-05T09:46:39;13.38;;;5.40;;
64110;SDS011;50401;48.188;11.566;2023-02-05T09:51:24;12.13;;;5.60;;
64110;SDS011;50401;48.188;11.566;2023-02-05T09:53:58;11.73;;;5.72;;
64110;SDS011;50401;48.188;11.566;2023-02-05T09:56:39;12.88;;;5.40;;
64110;SDS011;50401;48.188;11.566;2023-02-05T09:59:08;16.67;;;6.10;;
64110;SDS011;50401;48.188;11.566;2023-02-05T10:04:51;11.18;;;6.50;;
64110;SDS011;50401;48.188;11.566;2023-02-05T10:12:52;12.50;;;6.03;;
64110;SDS011;50401;48.188;11.566;2023-02-05T10:18:35;11.07;;;4.55;;
64110;SDS011;50401;48.188;11.566;2023-02-05T10:30:31;13.90;;;4.28;;
64110;SDS011;50401;48.188;11.566;2023-02-05T10:33:18;7.82;;;3.90;;
64110;SDS011;50401;48.188;11.566;2023-02-05T10:36:02;7.70;;;3.95;;
64110;SDS011;50401;48.188;11.566;2023-02-05T10:38:32;10.67;;;4.97;;
64110;SDS011;50401;48.188;11.566;2023-02-05T10:41:03;23.30;;;4.93;;
64110;SDS011;50401;48.188;11.566;2023-02-05T10:43:52;10.43;;;4.05;;
64110;SDS011;50401;48.188;11.566;2023-02-05T10:46:28;12.25;;;4.82;;
64110;SDS011;50401;48.188;11.566;2023-02-05T10:49:03;8.00;;;4.57;;
64110;SDS011;50401;48.188;11.566;2023-02-05T10:51:44;18.08;;;4.20;;
64110;SDS011;50401;48.188;11.566;2023-02-05T10:54:17;9.80;;;3.45;;
64110;SDS011;50401;48.188;11.566;2023-02-05T10:56:50;9.02;;;3.80;;
64110;SDS011;50401;48.188;11.566;2023-02-05T10:59:18;13.18;;;3.33;;
64110;SDS011;50401;48.188;11.566;2023-02-05T11:01:49;11.82;;;3.53;;
64110;SDS011;50401;48.188;11.566;2023-02-05T11:04:16;7.00;;;3.25;;
64110;SDS011;50401;48.188;11.566;2023-02-05T11:06:49;9.05;;;3.08;;
64110;SDS011;50401;48.188;11.566;2023-02-05T11:11:50;7.78;;;2.97;;
64110;SDS011;50401;48.188;11.566;2023-02-05T11:14:21;10.20;;;3.65;;
64110;SDS011;50401;48.188;11.566;2023-02-05T11:16:57;11.00;;;3.28;;
64110;SDS011;50401;48.188;11.566;2023-02-05T11:19:26;12.13;;;3.67;;
64110;SDS011;50401;48.188;11.566;2023-02-05T11:21:54;8.90;;;4.28;;
64110;SDS011;50401;48.188;11.566;2023-02-05T11:29:41;13.15;;;3.60;;
64110;SDS011;50401;48.188;11.566;2023-02-05T11:35:09;10.68;;;2.90;;
64110;SDS011;50401;48.188;11.566;2023-02-05T11:37:38;10.77;;;3.35;;
64110;SDS011;50401;48.188;11.566;2023-02-05T11:40:04;15.85;;;4.70;;
64110;SDS011;50401;48.188;11.566;2023-02-05T11:42:30;11.80;;;4.07;;
64110;SDS011;50401;48.188;11.566;2023-02-05T11:44:59;11.63;;;4.28;;
64110;SDS011;50401;48.188;11.566;2023-02-05T11:47:33;17.73;;;4.78;;
64110;SDS011;50401;48.188;11.566;2023-02-05T11:50:01;16.33;;;5.35;;
64110;SDS011;50401;48.188;11.566;2023-02-05T11:52:34;8.93;;;4.15;;
64110;SDS011;50401;48.188;11.566;2023-02-05T11:55:02;13.15;;;4.65;;
64110;SDS011;50401;48.188;11.566;2023-02-05T11:57:32;18.25;;;4.32;;
64110;SDS011;50401;48.188;11.566;2023-02-05T12:00:01;13.20;;;4.05;;
64110;SDS011;50401;48.188;11.566;2023-02-05T12:02:36;18.05;;;4.20;;
64110;SDS011;50401;48.188;11.566;2023-02-05T12:05:05;20.00;;;3.72;;
64110;SDS011;50401;48.188;11.566;2023-02-05T12:07:55;14.13;;;3.33;;
64110;SDS011;50401;48.188;11.566;2023-02-05T12:13:37;18.92;;;4.05;;
64110;SDS011;50401;48.188;11.566;2023-02-05T12:24:52;9.15;;;3.72;;
64110;SDS011;50401;48.188;11.566;2023-02-05T12:49:33;14.75;;;4.47;;
64110;SDS011;50401;48.188;11.566;2023-02-05T12:57:48;16.27;;;3.72;;
64110;SDS011;50401;48.188;11.566;2023-02-05T13:00:24;22.65;;;4.80;;
64110;SDS011;50401;48.188;11.566;2023-02-05T13:03:14;12.85;;;3.83;;
64110;SDS011;50401;48.188;11.566;2023-02-05T13:08:39;16.65;;;4.03;;
64110;SDS011;50401;48.188;11.566;2023-02-05T13:11:16;12.70;;;3.75;;
64110;SDS011;50401;48.188;11.566;2023-02-05T13:16:34;20.00;;;4.22;;
64110;SDS011;50401;48.188;11.566;2023-02-05T13:19:11;8.85;;;4.30;;
64110;SDS011;50401;48.188;11.566;2023-02-05T13:21:45;15.85;;;5.05;;
64110;SDS011;50401;48.188;11.566;2023-02-05T13:24:31;13.00;;;4.28;;
64110;SDS011;50401;48.188;11.566;2023-02-05T13:27:22;17.05;;;4.40;;
64110;SDS011;50401;48.188;11.566;2023-02-05T13:30:12;12.48;;;4.05;;
64110;SDS011;50401;48.188;11.566;2023-02-05T13:32:41;15.10;;;3.85;;
64110;SDS011;50401;48.188;11.566;2023-02-05T13:35:10;16.42;;;4.97;;
64110;SDS011;50401;48.188;11.566;2023-02-05T13:37:42;16.83;;;4.43;;
64110;SDS011;50401;48.188;11.566;2023-02-05T13:40:20;12.63;;;4.75;;
64110;SDS011;50401;48.188;11.566;2023-02-05T13:45:49;16.25;;;4.95;;
64110;SDS011;50401;48.188;11.566;2023-02-05T13:51:39;14.10;;;5.47;;
64110;SDS011;50401;48.188;11.566;2023-02-05T13:54:15;10.95;;;5.28;;
64110;SDS011;50401;48.188;11.566;2023-02-05T13:56:59;17.80;;;5.70;;
64110;SDS011;50401;48.188;11.566;2023-02-05T13:59:43;18.88;;;5.68;;
64110;SDS011;50401;48.188;11.566;2023-02-05T14:05:13;17.67;;;5.05;;
64110;SDS011;50401;48.188;11.566;2023-02-05T14:07:47;14.63;;;5.88;;
64110;SDS011;50401;48.188;11.566;2023-02-05T14:15:43;20.77;;;6.22;;
64110;SDS011;50401;48.188;11.566;2023-02-05T14:18:10;27.15;;;5.78;;
64110;SDS011;50401;48.188;11.566;2023-02-05T14:20:38;18.05;;;6.35;;
64110;SDS011;50401;48.188;11.566;2023-02-05T14:30:56;13.40;;;5.70;;
64110;SDS011;50401;48.188;11.566;2023-02-05T14:38:34;17.15;;;4.90;;
64110;SDS011;50401;48.188;11.566;2023-02-05T14:41:11;11.55;;;4.82;;
64110;SDS011;50401;48.188;11.566;2023-02-05T14:43:38;18.10;;;6.65;;
64110;SDS011;50401;48.188;11.566;2023-02-05T14:49:04;15.63;;;6.25;;
64110;SDS011;50401;48.188;11.566;2023-02-05T14:51:38;22.30;;;6.88;;
64110;SDS011;50401;48.188;11.566;2023-02-05T14:54:08;16.77;;;6.40;;
64110;SDS011;50401;48.188;11.566;2023-02-05T14:56:41;17.90;;;6.38;;
64110;SDS011;50401;48.188;11.566;2023-02-05T15:01:53;16.30;;;5.97;;
64110;SDS011;50401;48.188;11.566;2023-02-05T15:04:27;18.40;;;5.85;;
64110;SDS011;50401;48.188;11.566;2023-02-05T15:07:06;18.33;;;6.20;;
64110;SDS011;50401;48.188;11.566;2023-02-05T15:09:40;24.88;;;6.43;;
64110;SDS011;50401;48.188;11.566;2023-02-05T15:18:09;17.33;;;6.35;;
64110;SDS011;50401;48.188;11.566;2023-02-05T15:20:39;21.63;;;6.60;;
64110;SDS011;50401;48.188;11.566;2023-02-05T15:23:19;14.30;;;5.93;;
64110;SDS011;50401;48.188;11.566;2023-02-05T15:28:29;26.02;;;6.38;;
64110;SDS011;50401;48.188;11.566;2023-02-05T15:37:03;19.40;;;7.43;;
64110;SDS011;50401;48.188;11.566;2023-02-05T15:42:05;21.25;;;7.68;;
64110;SDS011;50401;48.188;11.566;2023-02-05T15:44:32;28.13;;;8.05;;
64110;SDS011;50401;48.188;11.566;2023-02-05T15:47:00;32.50;;;8.93;;
64110;SDS011;50401;48.188;11.566;2023-02-05T15:49:29;32.03;;;9.43;;
64110;SDS011;50401;48.188;11.566;2023-02-05T15:51:58;23.83;;;8.77;;
64110;SDS011;50401;48.188;11.566;2023-02-05T15:54:24;31.20;;;8.43;;
64110;SDS011;50401;48.188;11.566;2023-02-05T15:56:51;23.08;;;8.82;;
64110;SDS011;50401;48.188;11.566;2023-02-05T15:59:18;25.75;;;8.88;;
64110;SDS011;50401;48.188;11.566;2023-02-05T16:02:04;23.00;;;8.80;;
64110;SDS011;50401;48.188;11.566;2023-02-05T16:04:43;17.75;;;7.82;;
64110;SDS011;50401;48.188;11.566;2023-02-05T16:07:19;20.83;;;7.93;;
64110;SDS011;50401;48.188;11.566;2023-02-05T16:09:47;24.25;;;8.77;;
64110;SDS011;50401;48.188;11.566;2023-02-05T16:12:15;22.92;;;8.63;;
64110;SDS011;50401;48.188;11.566;2023-02-05T16:14:41;27.23;;;10.13;;
64110;SDS011;50401;48.188;11.566;2023-02-05T16:19:44;26.98;;;10.50;;
64110;SDS011;50401;48.188;11.566;2023-02-05T16:22:16;22.15;;;9.15;;
64110;SDS011;50401;48.188;11.566;2023-02-05T16:25:14;24.80;;;8.75;;
64110;SDS011;50401;48.188;11.566;2023-02-05T16:27:49;25.27;;;9.65;;
64110;SDS011;50401;48.188;11.566;2023-02-05T16:30:26;17.67;;;8.98;;
64110;SDS011;50401;48.188;11.566;2023-02-05T16:32:53;26.52;;;9.57;;
64110;SDS011;50401;48.188;11.566;2023-02-05T16:35:28;24.37;;;10.93;;
64110;SDS011;50401;48.188;11.566;2023-02-05T16:38:01;24.73;;;10.50;;
64110;SDS011;50401;48.188;11.566;2023-02-05T16:40:33;35.58;;;11.68;;
64110;SDS011;50401;48.188;11.566;2023-02-05T16:43:14;29.75;;;12.85;;
64110;SDS011;50401;48.188;11.566;2023-02-05T16:45:41;32.33;;;12.63;;
64110;SDS011;50401;48.188;11.566;2023-02-05T16:48:29;32.65;;;11.63;;
64110;SDS011;50401;48.188;11.566;2023-02-05T16:50:55;32.72;;;11.63;;
64110;SDS011;50401;48.188;11.566;2023-02-05T16:53:26;24.55;;;12.15;;
64110;SDS011;50401;48.188;11.566;2023-02-05T16:55:57;29.05;;;11.75;;
64110;SDS011;50401;48.188;11.566;2023-02-05T16:58:44;32.03;;;13.82;;
64110;SDS011;50401;48.188;11.566;2023-02-05T17:01:12;31.77;;;13.20;;
64110;SDS011;50401;48.188;11.566;2023-02-05T17:03:38;29.38;;;12.95;;
64110;SDS011;50401;48.188;11.566;2023-02-05T17:06:12;29.13;;;12.93;;
64110;SDS011;50401;48.188;11.566;2023-02-05T17:08:39;26.63;;;13.23;;
64110;SDS011;50401;48.188;11.566;2023-02-05T17:11:06;29.33;;;14.40;;
64110;SDS011;50401;48.188;11.566;2023-02-05T17:16:56;33.05;;;13.50;;
64110;SDS011;50401;48.188;11.566;2023-02-05T17:19:25;37.67;;;14.98;;